Argus, California
Current Conditions -  °F | °C
As of 11:56 PM on Monday 20 Oct 2014 (Local Time) from KNID Reporting Station
Clear Clear  
Wind Chill: 69°   Ceiling: Unl
Heat Index: 69°   Visibility: 10mi
Dew Point: 40°   Wind: 14mph
Humidity: 35%   Direction: 200°SSW
Pressure: 29.87"   Gusts: 23mph
Location:  35.6496°N, 117.375°W
Report Text: KNID 210656Z AUTO 20012G20KT 10SM CLR 21/04 A2987 RMK AO2 SLP098 T02060044 $
Loading
Personal Weather Stations






























Interactive Weather Map
Tropical Storm Tracking
New forecast layout! Learn more

10-Day Weather Forecast

Advertisements
Track Severe Weather on mobile